• Join FlightAware (Why Join?)
  • Login
  • US Flag 
10:11PM EDT


 

Airport Tracker/Info


-or-


 

Live Flight TrackerFlight Track Log ✈ N589H ✈ 04-Apr-2014 ✈ CYKF - KCLT

Flight Track Log - Related Links

Times and Time Zones

All times are in EDT time to prevent confusion due to time zone crossing. See the N589H flight status page for this flight to view local times or setup timezone preferences in your user account.

Time Position Orientation Groundspeed Altitude Reporting Facility
EDT Latitude Longitude Course Direction KTS MPH feet Rate Location/Type
01:03AM 43.4667 -80.3500 90° East 130 150 2,000  Level Toronto Center
01:04AM 43.4667 -80.3000 84° East 140 161 3,600 1,440 Climbing Toronto Center
01:05AM 43.4167 -80.2833 166° South 160 184 4,900 1,320 Climbing Toronto Center
01:06AM 43.3667 -80.2833 180° South 180 207 6,300 1,320 Climbing Toronto Center
01:07AM 43.3167 -80.2667 166° South 200 230 7,600 1,500 Climbing Toronto Center
01:08AM 43.2500 -80.2667 180° South 220 253 9,400 1,800 Climbing Toronto Center
01:09AM 43.1833 -80.3000 200° South 220 253 11,200 1,740 Climbing Toronto Center
01:10AM 43.1333 -80.3000 180° South 220 253 12,900 1,680 Climbing Toronto Center
01:11AM 43.0667 -80.3000 180° South 230 265 14,600 1,680 Climbing Toronto Center
01:12AM 43.0000 -80.3000 180° South 240 276 16,300 1,680 Climbing Toronto Center
01:13AM 42.9333 -80.3167 190° South 240 276 18,000 1,500 Climbing Toronto Center
01:14AM 42.8667 -80.3167 180° South 250 288 19,300 1,200 Climbing Toronto Center
01:15AM 42.7833 -80.3333 188° South 270 311 20,500 1,380 Climbing Toronto Center
01:16AM 42.6800 -80.3456 185° South 280 322 22,800 960 Climbing Cleveland Center
01:17AM 42.5986 -80.3581 186° South 292 336 22,900  Climbing Cleveland Center
01:18AM 42.5042 -80.3656 183° South 331 381 22,900 600 Level Cleveland Center
01:19AM 42.4128 -80.3750 184° South 328 377 24,200 960 Climbing Cleveland Center
01:20AM 42.3392 -80.3825 184° South 317 365 24,900 600 Climbing Cleveland Center
01:21AM 42.2483 -80.3917 184° South 321 369 25,500 540 Climbing Cleveland Center
01:22AM 42.1589 -80.4008 184° South 319 367 26,000 240 Climbing Cleveland Center
01:23AM 42.0639 -80.4086 183° South 341 392 26,000  Level Cleveland Center
01:24AM 41.9675 -80.4172 184° South 343 395 26,000  Level Cleveland Center
01:25AM 41.8694 -80.4286 185° South 351 404 26,000  Level Cleveland Center
01:26AM 41.7700 -80.4347 183° South 352 405 26,000  Level Cleveland Center
01:27AM 41.6694 -80.4419 183° South 353 406 26,000  Level Cleveland Center
01:28AM 41.5697 -80.4506 184° South 353 406 26,100 360 Climbing Cleveland Center
01:29AM 41.4722 -80.4594 184° South 352 405 26,800 600 Climbing Cleveland Center
01:30AM 41.3789 -80.4658 183° South 339 390 27,400 600 Climbing Cleveland Center
01:31AM 41.2872 -80.4744 184° South 332 382 28,000 300 Climbing Cleveland Center
01:32AM 41.1950 -80.4825 184° South 329 379 28,000  Level Cleveland Center
01:33AM 41.1125 -80.4894 184° South 336 387 28,000  Level Cleveland Center
01:34AM 41.0161 -80.4967 183° South 344 396 28,000  Level Cleveland Center
01:35AM 40.9183 -80.5056 184° South 347 399 28,000  Level Cleveland Center
01:36AM 40.8000 -80.5150 183° South 355 409 28,000  Level Cleveland Center
01:37AM 40.7169 -80.5217 183° South 355 409 28,000  Level Cleveland Center
01:38AM 40.6164 -80.5306 184° South 356 410 28,000  Level Cleveland Center
01:39AM 40.5044 -80.5389 183° South 356 410 28,000  Level Cleveland Center
01:40AM 40.4067 -80.5478 184° South 356 410 28,000  Level Cleveland Center
01:41AM 40.3081 -80.5561 184° South 356 410 28,000  Level Cleveland Center
01:42AM 40.2092 -80.5642 184° South 357 411 28,000  Level Cleveland Center
01:43AM 40.1108 -80.5714 183° South 357 411 28,000  Level Cleveland Center
01:44AM 40.0117 -80.5819 185° South 358 412 28,000  Level Cleveland Center
01:45AM 39.9133 -80.5897 183° South 357 411 28,000  Level Cleveland Center
01:46AM 39.8139 -80.5975 183° South 357 411 28,000  Level Cleveland Center
01:47AM 39.7150 -80.6039 183° South 357 411 28,000  Level Cleveland Center
01:48AM 39.6153 -80.6125 184° South 358 412 28,000  Level Cleveland Center
01:49AM 39.5156 -80.6211 184° South 359 413 28,000  Level Cleveland Center
01:50AM 39.4153 -80.6306 184° South 361 415 28,000  Level Cleveland Center
01:51AM 39.3331 -80.6353 183° South 366 421 28,000  Level Indianapolis Center
01:52AM 39.2333 -80.6447 184° South 364 419 28,000  Level Indianapolis Center
01:53AM 39.1325 -80.6522 183° South 362 417 28,000  Level Indianapolis Center
01:54AM 39.0314 -80.6603 184° South 362 417 28,000  Level Indianapolis Center
01:55AM 38.9308 -80.6683 184° South 362 417 28,000  Level Indianapolis Center
01:56AM 38.8322 -80.6764 184° South 358 412 28,000  Level Indianapolis Center
01:57AM 38.7325 -80.6836 183° South 358 412 28,000  Level Indianapolis Center
01:58AM 38.6339 -80.6919 184° South 357 411 28,000  Level Indianapolis Center
01:59AM 38.5356 -80.7008 184° South 356 410 28,000  Level Indianapolis Center
02:00AM 38.4367 -80.7083 183° South 356 410 28,000  Level Indianapolis Center
02:01AM 38.3378 -80.7144 183° South 356 410 28,000  Level Indianapolis Center
02:02AM 38.2386 -80.7228 184° South 356 410 28,000  Level Indianapolis Center
02:03AM 38.1394 -80.7294 183° South 355 409 28,000  Level Indianapolis Center
02:04AM 38.0408 -80.7369 183° South 355 409 28,000  Level Indianapolis Center
02:05AM 37.9411 -80.7456 184° South 355 409 28,000  Level Indianapolis Center
02:06AM 37.8425 -80.7525 183° South 355 409 28,000  Level Indianapolis Center
02:07AM 37.7500 -80.7592 183° South 355 409 28,000  Level Indianapolis Center
02:08AM 37.6544 -80.7669 184° South 355 409 28,000  Level Indianapolis Center
02:09AM 37.5575 -80.7736 183° South 356 410 28,000  Level Indianapolis Center
02:10AM 37.4400 -80.7836 184° South 363 418 28,000  Level Indianapolis Center
02:11AM 37.3603 -80.7936 186° South 362 417 28,000  Level Atlanta Center
02:12AM 37.2625 -80.8000 183° South 362 417 28,000  Level Atlanta Center
02:13AM 37.1564 -80.8072 183° South 357 411 28,000  Level Atlanta Center
02:14AM 37.0586 -80.8136 183° South 357 411 28,000  Level Atlanta Center
02:15AM 36.9608 -80.8228 184° South 351 404 28,000  Level Atlanta Center
02:16AM 36.8631 -80.8294 183° South 351 404 28,000  Level Atlanta Center
02:17AM 36.7756 -80.8331 182° South 356 410 28,000 -120 Level Atlanta Center
02:18AM 36.6758 -80.8447 185° South 356 410 27,800 -1,140 Descending Atlanta Center
02:19AM 36.5736 -80.8514 183° South 366 421 25,800 -2,040 Descending Atlanta Center
02:20AM 36.4739 -80.8581 183° South 366 421 23,800 -2,040 Descending Atlanta Center
02:21AM 36.3739 -80.8644 183° South 366 421 21,800 -2,040 Descending Atlanta Center
02:22AM 36.2781 -80.8733 184° South 361 415 19,800 -2,040 Descending Atlanta Center
02:23AM 36.1803 -80.8800 183° South 361 415 17,800 -2,040 Descending Atlanta Center
02:24AM 36.0908 -80.8886 184° South 343 395 15,800 -2,160 Descending Atlanta Center
02:24AM 36.0575 -80.8925 185° South 326 375 15,100 -840 Descending Atlanta Center
02:25AM 36.0056 -80.8944 182° South 329 379 15,000 -120 Descending Atlanta Center
02:25AM 35.9681 -80.8983 185° South 294 338 15,000  Level Atlanta Center
02:26AM 35.9222 -80.8975 179° South 313 360 15,000 -300 Level Atlanta Center
02:26AM 35.8847 -80.9017 185° South 298 343 14,700 -1,440 Descending Atlanta Center
02:27AM 35.8369 -80.9086 187° South 308 354 13,600 -2,220 Descending Atlanta Center
02:27AM 35.7953 -80.9178 190° South 299 344 12,500 -2,040 Descending Atlanta Center
02:28AM 35.7558 -80.9219 185° South 308 354 11,600 -2,040 Descending Atlanta Center
02:28AM 35.7164 -80.9311 191° South 293 337 10,500 -2,100 Descending Atlanta Center
02:29AM 35.6769 -80.9353 185° South 308 354 9,500 -1,980 Descending Atlanta Center
02:29AM 35.6356 -80.9444 190° South 288 331 8,500 -2,040 Descending Atlanta Center
02:30AM 35.6000 -80.9483 185° South 297 342 7,500 -1,920 Descending Atlanta Center
02:30AM 35.5564 -80.9575 190° South 250 288 6,400 -2,040 Descending Atlanta Center
02:31AM 35.5336 -80.9611 187° South 268 308 5,500 -2,100 Descending Atlanta Center
02:31AM 35.5003 -80.9672 188° South 198 228 4,300 -1,500 Descending Atlanta Center
02:32AM 35.4794 -80.9681 182° South 233 268 4,000 -300 Descending Atlanta Center
02:32AM 35.4464 -80.9744 189° South 169 194 4,000  Level Atlanta Center
02:33AM 35.4256 -80.9728 176° South 197 227 4,000  Level Atlanta Center
02:33AM 35.3983 -80.9711 177° South 170 196 4,000 -300 Level Atlanta Center
02:34AM 35.3794 -80.9719 182° South 176 203 3,700 -900 Descending Atlanta Center
02:35AM 35.3522 -80.9703 177° South 166 191 3,100 -840 Descending Atlanta Center
02:36AM 35.3103 -80.9617 170° South 134 154 2,400 -660 Descending Atlanta Center
02:37AM 35.2769 -80.9606 178° South 114 131 1,800 -600 Descending Atlanta Center
02:38AM 35.2436 -80.9567 175° South 118 136 1,200 -600 Descending Atlanta Center
02:40AM 35.2137 -80.9491 180° South  Level Estimated